sensor_id;sensor_type;location;lat;lon;timestamp;pressure;altitude;pressure_sealevel;temperature;humidity
70072;BME280;57434;42.794;23.302;2022-12-07T00:43:11;95486.22;;;2.73;87.34
70072;BME280;57434;42.794;23.302;2022-12-07T00:46:12;95158.25;;;1.11;87.44
70072;BME280;57434;42.794;23.302;2022-12-07T00:48:55;95209.41;;;1.28;87.24
70072;BME280;57434;42.794;23.302;2022-12-07T00:51:37;95691.34;;;4.84;87.22
70072;BME280;57434;42.794;23.302;2022-12-07T00:54:17;95401.94;;;2.49;87.17
70072;BME280;57434;42.794;23.302;2022-12-07T00:56:58;95240.34;;;1.49;87.50
70072;BME280;57434;42.794;23.302;2022-12-07T00:59:28;95515.41;;;3.69;87.51
70072;BME280;57434;42.794;23.302;2022-12-07T01:02:06;95691.22;;;4.88;87.34
70072;BME280;57434;42.794;23.302;2022-12-07T01:04:40;95686.66;;;4.94;86.87
70072;BME280;57434;42.794;23.302;2022-12-07T01:07:30;95690.34;;;4.91;86.53
70072;BME280;57434;42.794;23.302;2022-12-07T01:10:13;95682.81;;;4.78;86.61
70072;BME280;57434;42.794;23.302;2022-12-07T01:12:56;95333.81;;;1.92;86.34
70072;BME280;57434;42.794;23.302;2022-12-07T01:15:47;95686.56;;;4.63;86.67
70072;BME280;57434;42.794;23.302;2022-12-07T01:18:45;95155.91;;;0.97;86.81
70072;BME280;57434;42.794;23.302;2022-12-07T01:21:55;95683.13;;;4.81;87.32
70072;BME280;57434;42.794;23.302;2022-12-07T01:25:09;95675.97;;;4.70;87.55
70072;BME280;57434;42.794;23.302;2022-12-07T01:27:46;95176.47;;;1.21;86.93
70072;BME280;57434;42.794;23.302;2022-12-07T01:30:45;95166.31;;;1.31;86.62
70072;BME280;57434;42.794;23.302;2022-12-07T01:33:38;95351.47;;;2.32;86.79
70072;BME280;57434;42.794;23.302;2022-12-07T01:47:38;95681.25;;;4.77;87.21
70072;BME280;57434;42.794;23.302;2022-12-07T01:50:50;95230.41;;;1.38;86.09
70072;BME280;57434;42.794;23.302;2022-12-07T01:53:29;95363.19;;;2.49;86.63
70072;BME280;57434;42.794;23.302;2022-12-07T01:56:17;95149.59;;;1.22;86.24
70072;BME280;57434;42.794;23.302;2022-12-07T01:58:50;95603.94;;;4.10;86.48
70072;BME280;57434;42.794;23.302;2022-12-07T02:01:32;95539.75;;;3.30;87.16
70072;BME280;57434;42.794;23.302;2022-12-07T02:04:18;95164.75;;;1.04;87.05
70072;BME280;57434;42.794;23.302;2022-12-07T02:06:58;95653.81;;;4.58;87.28
70072;BME280;57434;42.794;23.302;2022-12-07T02:09:39;95661.03;;;4.55;87.20
70072;BME280;57434;42.794;23.302;2022-12-07T02:12:08;95471.88;;;2.88;87.38
70072;BME280;57434;42.794;23.302;2022-12-07T02:14:51;95610.59;;;3.91;87.39
70072;BME280;57434;42.794;23.302;2022-12-07T02:20:34;95320.66;;;2.43;86.56
70072;BME280;57434;42.794;23.302;2022-12-07T02:26:23;95197.47;;;1.06;86.70
70072;BME280;57434;42.794;23.302;2022-12-07T02:29:25;95640.50;;;4.31;87.00
70072;BME280;57434;42.794;23.302;2022-12-07T02:32:06;95637.81;;;4.18;87.37
70072;BME280;57434;42.794;23.302;2022-12-07T02:35:03;95147.84;;;0.52;86.76
70072;BME280;57434;42.794;23.302;2022-12-07T02:41:00;95355.16;;;1.66;87.02
70072;BME280;57434;42.794;23.302;2022-12-07T02:43:55;95661.31;;;3.92;86.86
70072;BME280;57434;42.794;23.302;2022-12-07T02:46:57;95560.09;;;2.89;86.86
70072;BME280;57434;42.794;23.302;2022-12-07T02:49:46;95312.00;;;1.94;86.14
70072;BME280;57434;42.794;23.302;2022-12-07T02:52:14;95051.97;;;0.01;85.64
70072;BME280;57434;42.794;23.302;2022-12-07T02:54:44;95097.44;;;0.22;85.75
70072;BME280;57434;42.794;23.302;2022-12-07T03:00:52;95630.31;;;3.59;85.86
70072;BME280;57434;42.794;23.302;2022-12-07T03:03:40;95144.41;;;-0.23;85.99
70072;BME280;57434;42.794;23.302;2022-12-07T03:06:49;95153.84;;;-0.08;86.57
70072;BME280;57434;42.794;23.302;2022-12-07T03:10:00;95373.66;;;1.27;86.69
70072;BME280;57434;42.794;23.302;2022-12-07T03:16:08;95385.06;;;1.29;87.40
70072;BME280;57434;42.794;23.302;2022-12-07T03:19:24;95287.84;;;1.06;87.35
70072;BME280;57434;42.794;23.302;2022-12-07T03:22:07;95616.19;;;3.31;87.59
70072;BME280;57434;42.794;23.302;2022-12-07T03:24:52;95679.06;;;3.34;87.14
70072;BME280;57434;42.794;23.302;2022-12-07T03:30:34;95663.31;;;3.19;87.77
70072;BME280;57434;42.794;23.302;2022-12-07T03:33:55;95632.59;;;3.26;87.86
70072;BME280;57434;42.794;23.302;2022-12-07T03:37:04;95502.94;;;2.32;87.66
70072;BME280;57434;42.794;23.302;2022-12-07T03:42:37;95415.38;;;2.00;87.19
70072;BME280;57434;42.794;23.302;2022-12-07T03:45:32;95114.47;;;-0.08;87.80
70072;BME280;57434;42.794;23.302;2022-12-07T03:48:22;95628.81;;;3.32;88.08
70072;BME280;57434;42.794;23.302;2022-12-07T03:51:38;95626.47;;;3.18;88.14
70072;BME280;57434;42.794;23.302;2022-12-07T03:54:43;95619.59;;;3.23;88.42
70072;BME280;57434;42.794;23.302;2022-12-07T03:57:54;95230.34;;;0.33;87.59
70072;BME280;57434;42.794;23.302;2022-12-07T04:03:30;95155.28;;;-0.32;86.33
70072;BME280;57434;42.794;23.302;2022-12-07T04:06:17;95598.09;;;3.14;86.65
70072;BME280;57434;42.794;23.302;2022-12-07T04:09:09;95671.06;;;3.24;86.82
70072;BME280;57434;42.794;23.302;2022-12-07T04:11:58;95232.72;;;0.19;87.05
70072;BME280;57434;42.794;23.302;2022-12-07T04:14:42;95608.53;;;2.97;87.58
70072;BME280;57434;42.794;23.302;2022-12-07T04:17:31;95607.44;;;3.07;87.55
70072;BME280;57434;42.794;23.302;2022-12-07T04:20:08;95425.31;;;1.85;87.02
70072;BME280;57434;42.794;23.302;2022-12-07T04:22:42;95517.63;;;2.03;86.64
70072;BME280;57434;42.794;23.302;2022-12-07T04:25:11;95650.34;;;3.03;86.73
70072;BME280;57434;42.794;23.302;2022-12-07T04:27:55;95609.09;;;2.92;86.79
70072;BME280;57434;42.794;23.302;2022-12-07T04:30:32;95310.91;;;0.86;86.84
70072;BME280;57434;42.794;23.302;2022-12-07T04:33:44;95610.22;;;3.07;87.04
70072;BME280;57434;42.794;23.302;2022-12-07T04:36:52;95613.44;;;3.06;86.34
70072;BME280;57434;42.794;23.302;2022-12-07T04:39:49;95411.56;;;1.81;86.40
70072;BME280;57434;42.794;23.302;2022-12-07T04:42:28;95605.44;;;3.08;86.43
70072;BME280;57434;42.794;23.302;2022-12-07T04:45:45;95091.63;;;-0.99;86.33
70072;BME280;57434;42.794;23.302;2022-12-07T04:48:33;95420.66;;;1.69;87.01
70072;BME280;57434;42.794;23.302;2022-12-07T04:51:07;95616.28;;;2.90;87.15
70072;BME280;57434;42.794;23.302;2022-12-07T04:54:03;95631.03;;;2.74;87.06
70072;BME280;57434;42.794;23.302;2022-12-07T04:56:39;95619.59;;;2.85;87.32
70072;BME280;57434;42.794;23.302;2022-12-07T04:59:18;95324.41;;;0.68;86.73
70072;BME280;57434;42.794;23.302;2022-12-07T05:02:15;95539.16;;;2.25;86.58
70072;BME280;57434;42.794;23.302;2022-12-07T05:05:02;95541.38;;;2.43;86.44
70072;BME280;57434;42.794;23.302;2022-12-07T05:10:59;95127.69;;;-0.77;85.82
70072;BME280;57434;42.794;23.302;2022-12-07T05:13:53;95491.50;;;2.04;86.24
70072;BME280;57434;42.794;23.302;2022-12-07T05:17:05;95340.44;;;0.44;85.96
70072;BME280;57434;42.794;23.302;2022-12-07T05:20:25;95196.03;;;0.06;85.82
70072;BME280;57434;42.794;23.302;2022-12-07T05:23:13;94943.09;;;-1.64;85.32
70072;BME280;57434;42.794;23.302;2022-12-07T05:26:15;95653.09;;;2.78;85.74
70072;BME280;57434;42.794;23.302;2022-12-07T05:29:04;95162.25;;;-0.27;85.18
70072;BME280;57434;42.794;23.302;2022-12-07T05:32:07;95327.59;;;0.66;85.72
70072;BME280;57434;42.794;23.302;2022-12-07T05:34:38;95618.63;;;2.79;85.74
70072;BME280;57434;42.794;23.302;2022-12-07T05:37:19;95041.41;;;-1.03;85.42
70072;BME280;57434;42.794;23.302;2022-12-07T05:40:19;95559.25;;;2.13;86.21
70072;BME280;57434;42.794;23.302;2022-12-07T05:43:26;95415.59;;;1.38;86.17
70072;BME280;57434;42.794;23.302;2022-12-07T06:02:24;95289.19;;;0.59;86.60
70072;BME280;57434;42.794;23.302;2022-12-07T07:25:09;95222.50;;;0.61;84.83
70072;BME280;57434;42.794;23.302;2022-12-07T07:28:37;95635.72;;;3.75;84.97
70072;BME280;57434;42.794;23.302;2022-12-07T07:51:42;95219.25;;;0.91;83.29
70072;BME280;57434;42.794;23.302;2022-12-07T08:50:54;95621.31;;;8.40;72.50
70072;BME280;57434;42.794;23.302;2022-12-07T08:53:55;95472.25;;;7.52;71.42
70072;BME280;57434;42.794;23.302;2022-12-07T09:05:24;95611.28;;;8.34;70.50
70072;BME280;57434;42.794;23.302;2022-12-07T09:08:08;95596.19;;;8.55;70.14
70072;BME280;57434;42.794;23.302;2022-12-07T09:10:50;95146.13;;;5.61;69.91
70072;BME280;57434;42.794;23.302;2022-12-07T09:13:42;95593.97;;;8.89;70.57
70072;BME280;57434;42.794;23.302;2022-12-07T09:16:29;95593.97;;;9.33;67.76
70072;BME280;57434;42.794;23.302;2022-12-07T09:19:41;95600.31;;;9.18;66.76
70072;BME280;57434;42.794;23.302;2022-12-07T09:28:02;95586.84;;;9.02;67.76
70072;BME280;57434;42.794;23.302;2022-12-07T09:31:11;95296.56;;;7.19;67.28
70072;BME280;57434;42.794;23.302;2022-12-07T09:34:12;95412.28;;;6.99;69.08
70072;BME280;57434;42.794;23.302;2022-12-07T09:37:04;95500.84;;;7.46;70.39
70072;BME280;57434;42.794;23.302;2022-12-07T09:39:47;95307.72;;;6.56;68.92
70072;BME280;57434;42.794;23.302;2022-12-07T09:42:56;95556.31;;;9.34;67.44
70072;BME280;57434;42.794;23.302;2022-12-07T09:45:48;95308.25;;;7.08;66.46
70072;BME280;57434;42.794;23.302;2022-12-07T10:06:10;95246.91;;;6.31;68.63
70072;BME280;57434;42.794;23.302;2022-12-07T10:09:14;95285.81;;;6.40;68.85
70072;BME280;57434;42.794;23.302;2022-12-07T10:12:10;95563.19;;;9.03;67.56
70072;BME280;57434;42.794;23.302;2022-12-07T10:15:06;95529.09;;;8.55;69.01
70072;BME280;57434;42.794;23.302;2022-12-07T10:18:18;95282.06;;;6.67;69.18
70072;BME280;57434;42.794;23.302;2022-12-07T10:38:16;95096.13;;;5.75;70.85
70072;BME280;57434;42.794;23.302;2022-12-07T11:14:18;95226.06;;;11.32;57.07
70072;BME280;57434;42.794;23.302;2022-12-07T11:42:11;95448.09;;;12.75;57.93
70072;BME280;57434;42.794;23.302;2022-12-07T11:45:31;95429.94;;;12.65;56.51
70072;BME280;57434;42.794;23.302;2022-12-07T11:48:41;95121.66;;;11.17;56.57
70072;BME280;57434;42.794;23.302;2022-12-07T11:51:11;95261.38;;;11.89;56.09
70072;BME280;57434;42.794;23.302;2022-12-07T11:54:14;95162.00;;;11.42;55.47
70072;BME280;57434;42.794;23.302;2022-12-07T11:56:54;94957.03;;;9.48;56.79
70072;BME280;57434;42.794;23.302;2022-12-07T11:59:59;94888.47;;;9.27;56.39
70072;BME280;57434;42.794;23.302;2022-12-07T12:02:59;94927.91;;;8.87;57.93
70072;BME280;57434;42.794;23.302;2022-12-07T12:18:33;95273.41;;;11.95;56.24
70072;BME280;57434;42.794;23.302;2022-12-07T12:21:10;95149.75;;;11.23;55.71
70072;BME280;57434;42.794;23.302;2022-12-07T12:23:51;95105.00;;;10.74;55.81
70072;BME280;57434;42.794;23.302;2022-12-07T12:26:49;95191.63;;;11.26;57.82
70072;BME280;57434;42.794;23.302;2022-12-07T12:29:36;95224.03;;;11.22;57.96
70072;BME280;57434;42.794;23.302;2022-12-07T12:32:17;95368.78;;;12.15;57.95
70072;BME280;57434;42.794;23.302;2022-12-07T12:37:40;95360.81;;;12.03;58.64
70072;BME280;57434;42.794;23.302;2022-12-07T12:40:45;94965.13;;;8.98;60.39
70072;BME280;57434;42.794;23.302;2022-12-07T12:46:52;95327.53;;;11.57;60.62
70072;BME280;57434;42.794;23.302;2022-12-07T12:51:51;94861.50;;;8.07;62.38
70072;BME280;57434;42.794;23.302;2022-12-07T13:02:38;95344.16;;;11.01;63.91
70072;BME280;57434;42.794;23.302;2022-12-07T13:05:29;95087.47;;;9.29;64.55
70072;BME280;57434;42.794;23.302;2022-12-07T13:08:26;95009.97;;;8.21;64.37
70072;BME280;57434;42.794;23.302;2022-12-07T13:11:33;95140.84;;;9.51;63.89
70072;BME280;57434;42.794;23.302;2022-12-07T13:20:42;95087.44;;;8.98;65.15
70072;BME280;57434;42.794;23.302;2022-12-07T13:29:11;95325.69;;;10.09;67.51
70072;BME280;57434;42.794;23.302;2022-12-07T13:32:18;94904.50;;;6.82;67.64
70072;BME280;57434;42.794;23.302;2022-12-07T13:35:28;95268.84;;;9.77;67.65
70072;BME280;57434;42.794;23.302;2022-12-07T13:37:58;95243.19;;;9.52;66.99
70072;BME280;57434;42.794;23.302;2022-12-07T13:41:02;94907.63;;;7.45;66.85
70072;BME280;57434;42.794;23.302;2022-12-07T13:43:59;94826.94;;;6.81;66.97
70072;BME280;57434;42.794;23.302;2022-12-07T13:49:27;94761.50;;;6.36;67.39
70072;BME280;57434;42.794;23.302;2022-12-07T13:55:26;95354.38;;;9.72;67.35
70072;BME280;57434;42.794;23.302;2022-12-07T13:57:55;94988.06;;;7.47;68.80
70072;BME280;57434;42.794;23.302;2022-12-07T14:00:40;94897.16;;;6.65;68.17
70072;BME280;57434;42.794;23.302;2022-12-07T14:06:56;95005.84;;;7.70;68.48
70072;BME280;57434;42.794;23.302;2022-12-07T14:09:28;95159.19;;;8.75;67.84
70072;BME280;57434;42.794;23.302;2022-12-07T14:12:11;95182.63;;;9.03;68.12
70072;BME280;57434;42.794;23.302;2022-12-07T14:14:55;95038.66;;;7.95;67.62
70072;BME280;57434;42.794;23.302;2022-12-07T14:20:44;95323.63;;;9.78;68.40
70072;BME280;57434;42.794;23.302;2022-12-07T14:23:28;94914.50;;;6.74;69.18
70072;BME280;57434;42.794;23.302;2022-12-07T14:29:48;95327.84;;;9.42;69.44
70072;BME280;57434;42.794;23.302;2022-12-07T14:32:49;95005.22;;;7.25;69.71
70072;BME280;57434;42.794;23.302;2022-12-07T14:42:35;94946.22;;;5.98;70.69
70072;BME280;57434;42.794;23.302;2022-12-07T14:48:53;95007.69;;;6.53;71.59
70072;BME280;57434;42.794;23.302;2022-12-07T15:13:29;95123.47;;;5.77;73.60
70072;BME280;57434;42.794;23.302;2022-12-07T15:16:20;95357.59;;;7.02;73.95
70072;BME280;57434;42.794;23.302;2022-12-07T15:19:01;94901.78;;;4.07;73.49
70072;BME280;57434;42.794;23.302;2022-12-07T16:16:54;95435.56;;;5.42;78.96
